Terminal Aerodrome Forecast
Issued by NWS Grand Forks, ND

Home | Current Version | Previous Version | Graphics & Text | Print | Product List | Glossary On
Versions: 1 2 3 4 5 6 7 8 9 10 11 12 13 14 15 16 17 18 19 20 21 22 23
376
FTUS43 KFGF 082143 AAA
TAFFAR
TAF AMD
KFAR 082143Z 0822/0918 34018G28KT 5SM -SN BLSN BKN012
      TEMPO 0822/0824 2SM -SN BLSN
     FM090100 34016KT P6SM SCT050
     FM091200 34011KT P6SM BKN250=

USA.gov is the U.S. government's official web portal to all federal, state and local government web resources and services.